createdAt,value
2023-04-18T00:01:42.093Z,3.33
2023-04-18T00:04:09.021Z,3.33
2023-04-18T00:06:38.897Z,3.00
2023-04-18T00:09:05.532Z,2.97
2023-04-18T00:11:32.070Z,3.20
2023-04-18T00:13:59.424Z,2.80
2023-04-18T00:16:27.274Z,3.40
2023-04-18T00:18:54.163Z,3.00
2023-04-18T00:21:23.264Z,3.13
2023-04-18T00:23:49.757Z,2.78
2023-04-18T00:26:16.249Z,2.80
2023-04-18T00:28:42.781Z,3.08
2023-04-18T00:31:09.368Z,3.30
2023-04-18T00:33:35.931Z,3.78
2023-04-18T00:36:02.465Z,4.30
2023-04-18T00:38:28.906Z,4.72
2023-04-18T00:40:55.383Z,5.15
2023-04-18T00:43:23.828Z,4.93
2023-04-18T00:45:50.440Z,5.30
2023-04-18T00:48:17.579Z,5.70
2023-04-18T00:50:45.276Z,5.50
2023-04-18T00:53:11.929Z,7.57
2023-04-18T00:55:39.434Z,7.32
2023-04-18T00:58:06.401Z,8.32
2023-04-18T01:00:32.917Z,8.75
2023-04-18T01:02:59.828Z,8.20
2023-04-18T01:05:27.073Z,8.40
2023-04-18T01:07:58.743Z,8.20
2023-04-18T01:10:26.223Z,7.93
2023-04-18T01:13:13.217Z,7.13
2023-04-18T01:15:43.907Z,7.47
2023-04-18T01:18:11.742Z,7.60
2023-04-18T01:20:41.503Z,7.78
2023-04-18T01:23:10.410Z,7.75
2023-04-18T01:25:37.348Z,7.55
2023-04-18T01:28:04.830Z,8.05
2023-04-18T01:30:31.406Z,8.63
2023-04-18T01:32:57.939Z,7.05
2023-04-18T01:35:24.463Z,7.80
2023-04-18T01:37:50.979Z,7.50
2023-04-18T01:40:17.516Z,7.55
2023-04-18T01:42:44.025Z,7.82
2023-04-18T01:45:11.980Z,7.60
2023-04-18T01:47:38.616Z,7.20
2023-04-18T01:50:05.843Z,7.78
2023-04-18T01:52:32.363Z,7.88
2023-04-18T01:54:58.949Z,7.28
2023-04-18T01:57:25.489Z,7.10
2023-04-18T01:59:51.946Z,7.93
2023-04-18T02:02:18.735Z,7.47
2023-04-18T02:04:45.592Z,6.93
2023-04-18T02:07:12.226Z,7.53
2023-04-18T02:09:38.675Z,7.60
2023-04-18T02:12:05.273Z,6.95
2023-04-18T02:14:36.283Z,6.63
2023-04-18T02:17:02.810Z,6.65
2023-04-18T02:19:30.202Z,6.75
2023-04-18T02:21:56.725Z,7.07
2023-04-18T02:24:23.310Z,7.63
2023-04-18T02:26:50.362Z,6.80
2023-04-18T02:29:17.064Z,6.60
2023-04-18T02:31:43.675Z,7.03
2023-04-18T02:34:10.259Z,6.50
2023-04-18T02:36:36.739Z,6.10
2023-04-18T02:39:03.373Z,6.65
2023-04-18T02:41:29.818Z,6.60
2023-04-18T02:43:56.348Z,6.63
2023-04-18T02:46:22.943Z,6.10
2023-04-18T02:48:49.573Z,6.30
2023-04-18T02:51:16.292Z,6.40
2023-04-18T02:53:42.759Z,6.55
2023-04-18T02:56:09.283Z,6.40
2023-04-18T02:58:36.442Z,6.05
2023-04-18T03:01:03.220Z,6.53
2023-04-18T03:03:29.783Z,6.63
2023-04-18T03:05:56.316Z,6.40
2023-04-18T03:08:22.738Z,6.32
2023-04-18T03:10:49.232Z,7.53
2023-04-18T03:13:16.897Z,6.68
2023-04-18T03:15:43.531Z,6.93
2023-04-18T03:18:10.016Z,6.22
2023-04-18T03:20:37.516Z,6.00
2023-04-18T03:23:03.962Z,5.63
2023-04-18T03:25:30.613Z,6.40
2023-04-18T03:27:57.064Z,5.88
2023-04-18T03:30:23.609Z,6.03
2023-04-18T03:32:52.944Z,5.68
2023-04-18T03:35:19.732Z,6.20
2023-04-18T03:37:46.158Z,6.45
2023-04-18T03:40:12.712Z,6.60
2023-04-18T03:42:39.192Z,5.95
2023-04-18T03:45:06.079Z,6.60
2023-04-18T03:47:32.605Z,6.80
2023-04-18T03:49:59.049Z,7.38
2023-04-18T03:52:26.075Z,6.53
2023-04-18T03:54:53.441Z,7.00
2023-04-18T03:57:19.887Z,6.72
2023-04-18T03:59:47.942Z,6.53
2023-04-18T04:02:14.599Z,6.28
2023-04-18T04:04:41.424Z,7.13
2023-04-18T04:07:07.983Z,7.25
2023-04-18T04:09:34.435Z,7.70
2023-04-18T04:12:02.223Z,7.47
2023-04-18T04:14:28.646Z,7.68
2023-04-18T04:16:55.219Z,7.05
2023-04-18T04:19:21.708Z,8.50
2023-04-18T04:21:48.470Z,7.82
2023-04-18T04:24:16.191Z,9.15
2023-04-18T04:26:43.125Z,9.35
2023-04-18T04:29:13.855Z,8.73
2023-04-18T04:31:40.480Z,8.27
2023-04-18T04:34:07.047Z,8.35
2023-04-18T04:36:33.546Z,8.13
2023-04-18T04:39:00.249Z,8.18
2023-04-18T04:41:27.748Z,8.38
2023-04-18T04:43:54.486Z,9.05
2023-04-18T04:46:21.203Z,8.88
2023-04-18T04:48:47.752Z,9.00
2023-04-18T04:51:14.270Z,10.13
2023-04-18T04:53:40.888Z,10.00
2023-04-18T04:56:07.653Z,10.45
2023-04-18T04:58:34.202Z,10.35
2023-04-18T05:01:01.049Z,10.02
2023-04-18T05:03:27.828Z,10.13
2023-04-18T05:05:54.561Z,10.00
2023-04-18T05:08:21.016Z,10.60
2023-04-18T05:10:49.724Z,10.40
2023-04-18T05:13:16.331Z,10.38
2023-04-18T05:15:43.093Z,10.43
2023-04-18T05:18:09.633Z,11.10
2023-04-18T05:20:36.243Z,10.60
2023-04-18T05:23:02.728Z,10.32
2023-04-18T05:25:29.898Z,11.27
2023-04-18T05:27:56.473Z,10.77
2023-04-18T05:30:22.922Z,10.75
2023-04-18T05:32:49.433Z,10.38
2023-04-18T05:35:16.394Z,11.15
2023-04-18T05:37:42.885Z,10.95
2023-04-18T05:40:10.242Z,11.57
2023-04-18T05:42:36.718Z,10.20
2023-04-18T05:45:03.411Z,10.57
2023-04-18T05:47:30.453Z,11.15
2023-04-18T05:49:57.037Z,10.52
2023-04-18T05:52:23.778Z,10.93
2023-04-18T05:54:50.878Z,9.57
2023-04-18T05:57:17.462Z,10.20
2023-04-18T05:59:44.324Z,9.73
2023-04-18T06:02:13.694Z,10.05
2023-04-18T06:04:42.009Z,10.48
2023-04-18T06:07:09.852Z,10.40
2023-04-18T06:09:36.418Z,9.98
2023-04-18T06:12:03.079Z,9.80
2023-04-18T06:14:29.608Z,10.90
2023-04-18T06:16:56.250Z,10.18
2023-04-18T06:19:22.961Z,10.00
2023-04-18T06:21:49.879Z,10.50
2023-04-18T06:24:16.646Z,9.63
2023-04-18T06:26:43.569Z,9.25
2023-04-18T06:29:10.472Z,9.63
2023-04-18T06:31:37.077Z,10.00
2023-04-18T06:34:03.590Z,9.32
2023-04-18T06:36:30.401Z,9.43
2023-04-18T06:38:56.910Z,9.60
2023-04-18T06:41:23.377Z,9.45
2023-04-18T06:44:02.750Z,9.77
2023-04-18T06:46:31.438Z,8.93
2023-04-18T06:48:58.041Z,9.98
2023-04-18T06:51:24.623Z,9.90
2023-04-18T06:53:52.970Z,9.63
2023-04-18T06:56:20.622Z,9.82
2023-04-18T06:58:47.533Z,10.38
2023-04-18T07:01:14.096Z,9.88
2023-04-18T07:03:40.738Z,9.50
2023-04-18T07:06:08.902Z,10.25
2023-04-18T07:08:35.624Z,9.50
2023-04-18T07:11:02.348Z,9.52
2023-04-18T07:13:29.063Z,9.57
2023-04-18T07:15:55.685Z,9.48
2023-04-18T07:18:34.349Z,10.00
2023-04-18T07:21:03.729Z,10.00
2023-04-18T07:23:30.223Z,10.68
2023-04-18T07:25:58.588Z,9.98
2023-04-18T07:28:25.102Z,10.60
2023-04-18T07:30:51.722Z,10.23
2023-04-18T07:33:18.221Z,10.23
2023-04-18T07:35:46.003Z,10.50
2023-04-18T07:38:13.101Z,10.57
2023-04-18T07:40:39.639Z,10.70
2023-04-18T07:43:06.121Z,9.98
2023-04-18T07:45:35.659Z,10.73
2023-04-18T07:48:02.503Z,9.95
2023-04-18T07:50:29.043Z,10.77
2023-04-18T07:52:55.668Z,10.77
2023-04-18T07:55:22.130Z,10.80
2023-04-18T07:57:50.464Z,10.30
2023-04-18T08:00:18.241Z,10.60
2023-04-18T08:02:44.923Z,11.07
2023-04-18T08:05:12.103Z,11.43
2023-04-18T08:07:38.718Z,11.75
2023-04-18T08:10:05.648Z,11.80
2023-04-18T08:12:32.138Z,10.88
2023-04-18T08:14:58.590Z,10.70
2023-04-18T08:17:25.126Z,10.77
2023-04-18T08:19:51.695Z,11.05
2023-04-18T08:22:18.277Z,10.18
2023-04-18T08:25:01.066Z,10.75
2023-04-18T08:27:31.375Z,10.57
2023-04-18T08:29:58.211Z,11.25
2023-04-18T08:32:24.762Z,10.40
2023-04-18T08:34:51.382Z,11.30
2023-04-18T08:37:17.815Z,10.77
2023-04-18T08:39:45.030Z,11.15
2023-04-18T08:42:15.885Z,10.68
2023-04-18T08:44:42.938Z,10.38
2023-04-18T08:47:09.897Z,10.40
2023-04-18T08:49:36.417Z,10.82
2023-04-18T08:52:11.290Z,10.57
2023-04-18T08:54:42.020Z,11.05
2023-04-18T08:57:12.635Z,11.05
2023-04-18T08:59:40.185Z,10.07
2023-04-18T09:02:08.933Z,10.20
2023-04-18T09:04:36.667Z,9.85
2023-04-18T09:07:05.697Z,9.73
2023-04-18T09:09:46.810Z,9.55
2023-04-18T09:12:18.167Z,9.98
2023-04-18T09:14:46.993Z,14.18
2023-04-18T09:17:18.390Z,10.98
2023-04-18T09:19:48.997Z,10.98
2023-04-18T09:22:17.027Z,9.63
2023-04-18T09:24:53.613Z,9.32
2023-04-18T09:27:23.202Z,9.63
2023-04-18T09:29:52.204Z,10.20
2023-04-18T09:32:36.598Z,9.35
2023-04-18T09:35:05.374Z,9.55
2023-04-18T09:37:31.977Z,8.25
2023-04-18T09:39:58.578Z,8.32
2023-04-18T09:42:28.242Z,8.43
2023-04-18T09:45:01.394Z,8.65
2023-04-18T09:47:28.477Z,8.65
2023-04-18T09:49:55.630Z,8.73
2023-04-18T09:52:25.353Z,9.20
2023-04-18T09:54:59.724Z,8.93
2023-04-18T09:57:31.278Z,8.77
2023-04-18T10:00:17.365Z,8.00
2023-04-18T10:02:58.397Z,8.05
2023-04-18T10:05:27.504Z,8.43
2023-04-18T10:07:55.059Z,8.05
2023-04-18T10:10:21.898Z,8.10
2023-04-18T10:12:50.868Z,8.60
2023-04-18T10:15:20.014Z,8.30
2023-04-18T10:18:04.297Z,7.85
2023-04-18T10:20:34.949Z,7.55
2023-04-18T10:23:37.878Z,8.23
2023-04-18T10:26:07.931Z,9.48
2023-04-18T10:28:57.636Z,10.68
2023-04-18T10:31:28.576Z,10.82
2023-04-18T10:36:28.355Z,13.77
2023-04-18T10:39:29.990Z,9.18
2023-04-18T10:41:56.589Z,8.45
2023-04-18T10:44:23.504Z,7.68
2023-04-18T10:46:53.053Z,7.93
2023-04-18T10:49:23.358Z,7.22
2023-04-18T10:51:53.841Z,8.55
2023-04-18T10:54:32.407Z,7.57
2023-04-18T10:57:04.154Z,7.75
2023-04-18T10:59:33.135Z,7.53
2023-04-18T11:02:02.502Z,6.88
2023-04-18T11:04:29.258Z,5.80
2023-04-18T11:06:57.476Z,7.00
2023-04-18T11:09:24.650Z,6.80
2023-04-18T11:12:08.233Z,7.28
2023-04-18T11:14:42.131Z,6.90
2023-04-18T11:17:18.482Z,6.78
2023-04-18T11:19:45.186Z,7.10
2023-04-18T11:22:12.263Z,7.30
2023-04-18T11:24:39.090Z,7.55
2023-04-18T11:27:05.801Z,8.02
2023-04-18T11:29:32.463Z,8.60
2023-04-18T11:31:59.136Z,7.78
2023-04-18T11:34:31.746Z,9.43
2023-04-18T11:36:58.458Z,8.45
2023-04-18T11:39:25.064Z,8.90
2023-04-18T11:41:51.717Z,8.52
2023-04-18T11:44:23.453Z,8.95
2023-04-18T11:46:51.382Z,8.75
2023-04-18T11:49:32.106Z,13.65
2023-04-18T11:51:59.894Z,34.13
2023-04-18T11:54:36.591Z,9.48
2023-04-18T11:57:03.353Z,8.48
2023-04-18T11:59:29.868Z,8.63
2023-04-18T12:02:15.292Z,8.98
2023-04-18T12:05:00.171Z,9.27
2023-04-18T12:07:41.575Z,9.23
2023-04-18T12:10:23.465Z,8.57
2023-04-18T12:13:01.037Z,9.32
2023-04-18T12:15:29.382Z,9.82
2023-04-18T12:18:00.976Z,9.30
2023-04-18T12:20:47.343Z,9.43
2023-04-18T12:23:32.769Z,20.60
2023-04-18T12:26:01.461Z,14.30
2023-04-18T12:28:28.220Z,10.95
2023-04-18T12:30:55.791Z,9.05
2023-04-18T12:33:22.517Z,8.23
2023-04-18T12:35:49.672Z,8.88
2023-04-18T12:38:20.225Z,8.60
2023-04-18T12:40:46.777Z,8.50
2023-04-18T12:43:13.415Z,8.43
2023-04-18T12:45:39.914Z,8.70
2023-04-18T12:48:06.708Z,8.13
2023-04-18T12:50:33.382Z,8.27
2023-04-18T12:53:01.606Z,8.10
2023-04-18T12:55:29.146Z,7.88
2023-04-18T12:57:56.074Z,8.77
2023-04-18T13:00:24.210Z,8.30
2023-04-18T13:02:52.502Z,8.57
2023-04-18T13:05:21.369Z,9.18
2023-04-18T13:07:49.722Z,8.55
2023-04-18T13:10:20.919Z,8.90
2023-04-18T13:12:49.751Z,8.02
2023-04-18T13:15:16.928Z,8.40
2023-04-18T13:17:45.073Z,8.32
2023-04-18T13:20:15.097Z,8.93
2023-04-18T13:22:42.840Z,8.05
2023-04-18T13:25:10.697Z,7.60
2023-04-18T13:27:39.619Z,7.28
2023-04-18T13:30:10.364Z,8.25
2023-04-18T13:32:37.722Z,8.02
2023-04-18T13:35:04.594Z,8.45
2023-04-18T13:37:31.329Z,8.07
2023-04-18T13:39:58.025Z,9.38
2023-04-18T13:42:24.577Z,8.68
2023-04-18T13:44:51.106Z,9.02
2023-04-18T13:47:17.643Z,7.90
2023-04-18T13:49:44.178Z,8.43
2023-04-18T13:52:10.637Z,7.60
2023-04-18T13:54:37.687Z,8.63
2023-04-18T13:57:04.443Z,8.48
2023-04-18T13:59:32.324Z,8.40
2023-04-18T14:01:59.081Z,7.85
2023-04-18T14:04:26.073Z,7.80
2023-04-18T14:06:52.798Z,8.00
2023-04-18T14:09:19.404Z,8.85
2023-04-18T14:11:46.467Z,9.10
2023-04-18T14:14:13.065Z,8.82
2023-04-18T14:16:39.582Z,8.40
2023-04-18T14:19:06.057Z,8.45
2023-04-18T14:21:32.532Z,8.30
2023-04-18T14:23:59.058Z,7.70
2023-04-18T14:26:25.601Z,8.23
2023-04-18T14:28:52.173Z,8.13
2023-04-18T14:31:18.827Z,7.88
2023-04-18T14:33:45.372Z,7.80
2023-04-18T14:36:12.258Z,8.48
2023-04-18T14:38:38.719Z,9.10
2023-04-18T14:41:05.660Z,9.35
2023-04-18T14:43:32.371Z,9.00
2023-04-18T14:45:59.797Z,8.10
2023-04-18T14:48:27.865Z,8.43
2023-04-18T14:50:58.568Z,9.13
2023-04-18T14:53:25.301Z,8.48
2023-04-18T14:55:52.141Z,8.90
2023-04-18T14:58:18.627Z,8.18
2023-04-18T15:00:45.126Z,9.43
2023-04-18T15:03:11.799Z,9.63
2023-04-18T15:05:46.397Z,9.23
2023-04-18T15:08:14.548Z,8.95
2023-04-18T15:10:42.573Z,9.02
2023-04-18T15:13:09.832Z,9.95
2023-04-18T15:15:37.720Z,8.63
2023-04-18T15:18:04.756Z,9.15
2023-04-18T15:20:31.617Z,9.20
2023-04-18T15:22:58.153Z,9.50
2023-04-18T15:25:26.080Z,10.18
2023-04-18T15:27:52.966Z,9.85
2023-04-18T15:30:19.807Z,9.45
2023-04-18T15:32:47.664Z,8.50
2023-04-18T15:35:14.473Z,9.82
2023-04-18T15:37:41.476Z,9.27
2023-04-18T15:40:11.305Z,9.05
2023-04-18T15:42:39.516Z,8.85
2023-04-18T15:45:07.894Z,9.48
2023-04-18T15:47:34.786Z,10.55
2023-04-18T15:50:02.827Z,9.85
2023-04-18T15:52:29.952Z,10.00
2023-04-18T15:55:00.276Z,9.55
2023-04-18T15:57:26.911Z,9.48
2023-04-18T15:59:53.938Z,9.05
2023-04-18T16:02:20.752Z,10.52
2023-04-18T16:04:47.260Z,9.63
2023-04-18T16:07:13.861Z,9.60
2023-04-18T16:09:40.538Z,10.27
2023-04-18T16:12:08.131Z,9.30
2023-04-18T16:14:34.700Z,10.02
2023-04-18T16:17:01.243Z,10.30
2023-04-18T16:19:27.667Z,10.25
2023-04-18T16:21:54.199Z,10.07
2023-04-18T16:24:20.865Z,10.63
2023-04-18T16:26:47.361Z,9.77
2023-04-18T16:29:13.809Z,10.90
2023-04-18T16:31:41.518Z,11.45
2023-04-18T16:34:08.011Z,10.73
2023-04-18T16:36:34.782Z,10.00
2023-04-18T16:39:01.433Z,10.27
2023-04-18T16:41:28.079Z,9.95
2023-04-18T16:43:54.563Z,10.10
2023-04-18T16:46:21.112Z,11.27
2023-04-18T16:48:48.625Z,11.07
2023-04-18T16:51:16.169Z,11.40
2023-04-18T16:53:42.757Z,10.95
2023-04-18T16:56:09.308Z,10.63
2023-04-18T16:58:35.780Z,11.05
2023-04-18T17:01:02.399Z,11.02
2023-04-18T17:03:28.982Z,9.70
2023-04-18T17:05:55.905Z,10.40
2023-04-18T17:08:22.403Z,11.23
2023-04-18T17:10:51.909Z,11.55
2023-04-18T17:13:18.556Z,11.40
2023-04-18T17:15:45.091Z,11.68
2023-04-18T17:18:11.778Z,11.73
2023-04-18T17:20:38.404Z,11.43
2023-04-18T17:23:04.930Z,12.95
2023-04-18T17:25:31.877Z,11.65
2023-04-18T17:27:58.712Z,13.15
2023-04-18T17:30:25.242Z,10.52
2023-04-18T17:32:51.759Z,11.40
2023-04-18T17:35:18.442Z,11.95
2023-04-18T17:37:47.400Z,11.75
2023-04-18T17:40:13.978Z,11.55
2023-04-18T17:42:40.466Z,11.63
2023-04-18T17:45:08.885Z,10.23
2023-04-18T17:47:36.690Z,11.60
2023-04-18T17:50:04.141Z,12.00
2023-04-18T17:52:30.691Z,12.93
2023-04-18T17:54:58.403Z,11.68
2023-04-18T17:57:26.607Z,11.70
2023-04-18T17:59:53.670Z,12.40
2023-04-18T18:02:20.456Z,11.00
2023-04-18T18:04:47.250Z,11.60
2023-04-18T18:07:13.899Z,11.88
2023-04-18T18:09:42.006Z,11.77
2023-04-18T18:12:12.281Z,11.40
2023-04-18T18:14:40.470Z,12.07
2023-04-18T18:17:07.264Z,10.98
2023-04-18T18:19:36.715Z,11.07
2023-04-18T18:22:03.211Z,10.40
2023-04-18T18:24:29.986Z,11.63
2023-04-18T18:26:58.067Z,11.32
2023-04-18T18:29:24.674Z,11.75
2023-04-18T18:31:51.246Z,11.30
2023-04-18T18:34:17.818Z,11.07
2023-04-18T18:36:44.265Z,11.35
2023-04-18T18:39:11.159Z,12.00
2023-04-18T18:41:37.788Z,11.27
2023-04-18T18:44:04.374Z,11.30
2023-04-18T18:46:31.060Z,11.10
2023-04-18T18:48:57.703Z,11.48
2023-04-18T18:51:24.279Z,11.00
2023-04-18T18:53:50.787Z,11.63
2023-04-18T18:56:17.241Z,11.20
2023-04-18T18:58:43.809Z,10.95
2023-04-18T19:01:11.520Z,10.75
2023-04-18T19:03:38.258Z,10.13
2023-04-18T19:06:07.026Z,11.32
2023-04-18T19:08:34.096Z,10.40
2023-04-18T19:11:00.713Z,9.63
2023-04-18T19:13:27.287Z,9.77
2023-04-18T19:15:54.228Z,10.40
2023-04-18T19:18:21.314Z,9.80
2023-04-18T19:20:49.539Z,10.80
2023-04-18T19:23:17.047Z,11.13
2023-04-18T19:25:44.911Z,10.35
2023-04-18T19:28:12.867Z,7.22
2023-04-18T19:30:39.381Z,8.02
2023-04-18T19:33:06.005Z,5.22
2023-04-18T19:35:32.556Z,4.95
2023-04-18T19:38:01.716Z,4.50
2023-04-18T19:40:29.298Z,3.97
2023-04-18T19:42:55.779Z,3.90
2023-04-18T19:45:22.278Z,3.97
2023-04-18T19:47:48.918Z,4.05
2023-04-18T19:50:15.438Z,4.22
2023-04-18T19:52:41.923Z,4.22
2023-04-18T19:55:08.858Z,4.10
2023-04-18T19:57:39.605Z,4.07
2023-04-18T20:00:11.380Z,4.03
2023-04-18T20:02:39.099Z,4.15
2023-04-18T20:05:07.350Z,4.50
2023-04-18T20:07:34.886Z,4.60
2023-04-18T20:10:01.802Z,5.18
2023-04-18T20:12:28.403Z,4.50
2023-04-18T20:14:55.515Z,4.72
2023-04-18T20:17:22.118Z,4.35
2023-04-18T20:19:49.598Z,4.28
2023-04-18T20:22:16.645Z,4.88
2023-04-18T20:24:44.996Z,4.40
2023-04-18T20:27:12.080Z,4.28
2023-04-18T20:29:38.676Z,4.78
2023-04-18T20:32:05.811Z,4.07
2023-04-18T20:34:32.587Z,4.70
2023-04-18T20:37:00.015Z,4.25
2023-04-18T20:39:27.033Z,4.40
2023-04-18T20:41:54.284Z,4.40
2023-04-18T20:44:21.758Z,4.75
2023-04-18T20:46:48.418Z,4.60
2023-04-18T20:49:15.071Z,4.70
2023-04-18T20:51:41.795Z,4.93
2023-04-18T20:54:08.257Z,5.05
2023-04-18T20:56:36.903Z,4.45
2023-04-18T20:59:04.927Z,4.95
2023-04-18T21:01:31.611Z,4.78
2023-04-18T21:03:58.414Z,5.00
2023-04-18T21:06:25.027Z,5.35
2023-04-18T21:08:51.568Z,5.47
2023-04-18T21:11:18.021Z,5.05
2023-04-18T21:13:44.539Z,5.35
2023-04-18T21:16:11.155Z,4.70
2023-04-18T21:18:37.698Z,5.13
2023-04-18T21:21:04.475Z,4.85
2023-04-18T21:23:31.113Z,5.65
2023-04-18T21:25:57.602Z,4.47
2023-04-18T21:28:24.141Z,5.22
2023-04-18T21:30:50.737Z,4.93
2023-04-18T21:33:17.259Z,4.85
2023-04-18T21:35:43.782Z,5.00
2023-04-18T21:38:10.326Z,5.47
2023-04-18T21:40:37.483Z,5.47
2023-04-18T21:43:03.958Z,5.30
2023-04-18T21:45:30.550Z,5.65
2023-04-18T21:47:57.099Z,5.00
2023-04-18T21:50:23.705Z,5.25
2023-04-18T21:52:50.137Z,5.25
2023-04-18T21:55:17.976Z,5.55
2023-04-18T21:57:44.460Z,5.50
2023-04-18T22:00:12.692Z,5.63
2023-04-18T22:02:39.224Z,4.97
2023-04-18T22:05:07.579Z,5.40
2023-04-18T22:07:43.330Z,5.63
2023-04-18T22:10:17.760Z,5.23
2023-04-18T22:12:44.462Z,5.78
2023-04-18T22:15:12.265Z,5.32
2023-04-18T22:17:41.684Z,4.60
2023-04-18T22:20:08.778Z,5.40
2023-04-18T22:22:35.444Z,5.28
2023-04-18T22:25:01.923Z,5.25
2023-04-18T22:27:28.442Z,5.18
2023-04-18T22:29:54.965Z,5.18
2023-04-18T22:32:21.487Z,5.60
2023-04-18T22:34:48.670Z,4.88
2023-04-18T22:37:15.149Z,5.10
2023-04-18T22:39:41.682Z,4.90
2023-04-18T22:42:08.168Z,5.15
2023-04-18T22:44:34.626Z,5.05
2023-04-18T22:47:01.380Z,5.47
2023-04-18T22:49:28.406Z,4.45
2023-04-18T22:51:54.834Z,4.47
2023-04-18T22:54:21.366Z,5.47
2023-04-18T22:56:51.449Z,4.85
2023-04-18T22:59:18.063Z,4.70
2023-04-18T23:01:44.757Z,5.07
2023-04-18T23:04:11.499Z,4.82
2023-04-18T23:06:38.774Z,4.53
2023-04-18T23:09:07.063Z,4.72
2023-04-18T23:11:33.539Z,4.90
2023-04-18T23:14:00.017Z,4.95
2023-04-18T23:16:26.695Z,5.18
2023-04-18T23:18:53.328Z,4.85
2023-04-18T23:21:19.784Z,5.03
2023-04-18T23:23:46.313Z,5.35
2023-04-18T23:26:14.437Z,4.80
2023-04-18T23:28:42.339Z,5.45
2023-04-18T23:31:09.601Z,4.65
2023-04-18T23:33:36.504Z,5.25
2023-04-18T23:36:03.295Z,5.00
2023-04-18T23:38:30.763Z,5.00
2023-04-18T23:40:57.256Z,4.70
2023-04-18T23:43:23.742Z,4.93
2023-04-18T23:45:50.632Z,4.80
2023-04-18T23:48:17.129Z,5.35
2023-04-18T23:50:52.495Z,5.03
2023-04-18T23:53:20.411Z,4.72
2023-04-18T23:55:49.477Z,5.15
2023-04-18T23:58:17.126Z,4.28
